HOURLY OBS INDEX

039

South Coast - Curtis

BUNDABERG AERO

Site: 039128
Alt: 30.8m
5km SSW of BUNDABERG


  Time     Wind        Temp  DP   Baro     Rain since   Rain past  Vis(m), Cloud(base in m), Weather
  local        km/h                         9am  last   hr   10m    
Thu 15:00    N 28/ 37  28.8 18.0  1006.4    0.0   0.0   0.0   0.0   10000 
Thu 15:30    N 28/ 39  28.2 17.4  1005.8    0.0   0.0   0.0   0.0   10000 
Thu 16:00    N 26/ 32  27.3 18.6  1005.3    0.0   0.0   0.0   0.0   10000 
Thu 16:30    N 26/ 33  26.9 18.7  1005.2    0.0   0.0   0.0   0.0   10000 
Thu 17:00    N 26/ 33  26.4 18.3  1005.6    0.0   0.0   0.0   0.0   10000|BR1560 
Thu 17:30    N 26/ 32  26.1 19.0  1006.4    0.0   0.0   0.0   0.0   10000|SC1680 
Thu 18:00    N 22/ 32  25.9 19.5  1007.3    0.0   0.0   0.0   0.0   10000|SC 690 BR1230 BR1440 
Thu 18:00    N 22/ 32  25.9 19.5  1007.3    0.0   0.0  ----   0.0   10000|SC 690 BR1230 BR1440 
Thu 18:30    N 20/ 24  25.5 19.2  1007.5    0.0   0.0   0.0   0.0   10000|SC1260 SC1410 SC1650 
Thu 19:00    N 20/ 24  25.5 19.6  1007.7    0.0   0.0   0.0   0.0   10000|SC1260 SC1410 BR2160 
Thu 19:30    N 22/ 28  25.4 20.0  1007.3    0.0   0.0   0.0   0.0   10000 
Thu 20:00    N 22/ 28  25.1 20.1  1007.3    0.0   0.0   0.0   0.0   10000 
Thu 20:00    N 22/ 28  25.1 20.1  1007.3    0.0   0.0  ----   0.0   10000 
Thu 20:00    N 22/ 28  25.1 20.1  1007.3    0.0   0.0  ----   0.0   10000 

GAYNDAH AIRPORT

Site: 039066
Alt: 110.9m
108km W of MARYBOROUGH


  Time     Wind        Temp  DP   Baro     Rain since   Rain past  Vis(m), Cloud(base in m), Weather
  local        km/h                         9am  last   hr   10m    
Thu 15:00   NE 15/ 19  30.9 16.1  1005.0    0.0   0.0   0.0   0.0   ----- 
Thu 15:30   NE 15/ 20  30.9 16.1  1004.4    0.0   0.0   0.0   0.0   ----- 
Thu 16:00   NE 19/ 26  30.9 16.5  1003.3    0.0   0.0   0.0   0.0   ----- 
Thu 16:30  NNE 20/ 28  29.8 17.6  1003.3    0.0   0.0   0.0   0.0   ----- 
Thu 17:00  NNE 17/ 24  28.8 18.0  1004.3    0.0   0.0   0.0   0.0   ----- 
Thu 17:30  NNE 22/ 37  27.8 17.9  1004.4    0.0   0.0   0.0   0.0   ----- 
Thu 18:00  NNE 19/ 30  27.4 18.1  1005.7    0.0   0.0   0.0   0.0   ----- 
Thu 18:00  NNE 19/ 30  27.4 18.1  1005.7    0.0   0.0  ----   0.0   ----- 
Thu 18:30   NE 13/ 22  25.7 18.9  1006.5    0.4   0.4   0.4   0.4   ----- 
Thu 19:00   NE 19/ 26  24.6 19.4  1006.7    0.4   0.0   0.4   0.0   ----- 
Thu 19:30  ENE 13/ 15  23.9 19.6  1006.7    0.4   0.0   0.0   0.0   ----- 
Thu 20:00  ENE 11/ 15  23.5 19.6  1006.6    0.4   0.0   0.0   0.0   ----- 
Thu 20:00  ENE 11/ 15  23.5 19.6  1006.6    0.4   0.0  ----   0.0   ----- 
Thu 20:00  ENE 11/ 15  23.5 19.6  1006.6    0.4   0.0  ----   0.0   ----- 

GLADSTONE AIRPORT

Site: 039326
Alt: 16.6m
5km SW of GLADSTONE


  Time     Wind        Temp  DP   Baro     Rain since   Rain past  Vis(m), Cloud(base in m), Weather
  local        km/h                         9am  last   hr   10m    
Thu 15:00  ENE 20/ 24  26.2 20.8  1006.4    0.0   0.0   0.0   0.0   10000|OC 780 
Thu 15:30  NNE 22/ 28  26.3 20.2  1005.9    0.0   0.0   0.0   0.0   10000|OC 780 
Thu 16:00  NNE 20/ 26  26.8 20.2  1005.5    0.0   0.0   0.0   0.0   10000|SC 900 SC1020 
Thu 16:30   NE 20/ 28  26.5 20.8  1005.4    0.0   0.0   0.0   0.0   10000|SC 690 SC1020 BR1260 
Thu 17:00  NNE 15/ 20  26.3 21.1  1005.6    0.0   0.0   0.0   0.0   10000|SC 630 BR 870 BR1110 
Thu 17:30  NNE 17/ 22  26.0 21.0  1006.1    0.0   0.0   0.0   0.0   10000|SC 570 SC 750 OC1020 
Thu 18:00   NE 15/ 19  26.0 21.2  1006.3    0.0   0.0   0.0   0.0   10000|OC 870 
Thu 18:00   NE 15/ 19  26.0 21.2  1006.3    0.0   0.0  ----   0.0   10000|OC 870 
Thu 18:28  NNE 13/ 19  25.1 21.6  1006.9    0.0   0.0  ----   0.0    5000|SC 630 OC 750 
Thu 18:30  NNE 13/ 19  25.1 21.8  1007.0    0.0   0.0   0.0   0.0    5000|BR 630 OC 720 
Thu 19:00  ENE  6/  9  24.6 22.3  1007.2    0.8   0.8   0.8   0.4    3900|BR 660 OC 870 
Thu 19:30    E  9/ 13  24.6 22.8  1007.2    1.2   0.4   1.2   0.2    5000|SC 450 BR 660 OC 960 
Thu 19:32    E  9/ 13  24.6 22.8  1007.2    1.2   0.0  ----   0.2    5000|SC 450 BR 660 OC 960 
Thu 19:45    E  9/ 13  24.4 22.7  1007.4    1.4   0.2  ----   0.2    5000|SC 300 BR 480 BR 660 
Thu 19:51    E  9/ 13  24.4 22.8  1007.5    1.4   0.0  ----   0.0    5000|SC 180 BR 360 BR 540 
Thu 20:00    E  9/ 11  24.4 22.8  1007.4    1.4   0.0   0.6   0.0   10000|SC 180 SC 360 BR 540 
Thu 20:00    E  9/ 11  24.4 22.8  1007.4    1.4   0.0  ----   0.0   10000|SC 180 SC 360 BR 540 
Thu 20:00    E  9/ 11  24.4 22.8  1007.4    1.4   0.0  ----   0.0   10000|SC 180 SC 360 BR 540 
Thu 20:01    E  9/ 11  24.4 22.8  1007.4    1.4   0.0  ----   0.0   10000|SC 180 SC 360 BR 540 
Thu 20:01    E  9/ 11  24.4 22.8  1007.4    1.4   0.0  ----   0.0   10000|SC 180 SC 360 BR 540 
Thu 20:01    E  9/ 11  24.4 22.8  1007.4    1.4   0.0  ----   0.0   10000|SC 180 SC 360 BR 540 
Thu 20:08    E  7/  9  24.4 22.8  1007.5    1.4   0.0   0.0   0.0   10000|SC 180 SC 300 SC 480 
Thu 20:19  ESE  6/  9  24.4 22.8  1007.5    1.8   0.0   0.0   0.4    5000|BR 750 BR 930 

GLADSTONE RADAR

Site: 039123
Alt: 74.5m
3km SSE of GLADSTONE


  Time     Wind        Temp  DP   Baro     Rain since   Rain past  Vis(m), Cloud(base in m), Weather
  local        km/h                         9am  last   hr   10m    
Thu 15:00   NE 13/ 20  27.1 21.6  1006.6    0.0   0.0   0.0   0.0   ----- 
Thu 15:30  NNE 15/ 28  26.3 20.4  1006.2    0.0   0.0   0.0   0.0   ----- 
Thu 16:00   NE 13/ 24  27.2 21.0  1005.8    0.0   0.0   0.0   0.0   ----- 
Thu 16:30   NE 17/ 26  26.5 21.3  1005.6    0.0   0.0   0.0   0.0   ----- 
Thu 17:00  NNE 15/ 26  26.0 21.7  1005.9    0.0   0.0   0.0   0.0   ----- 
Thu 17:30  NNE 13/ 24  25.6 21.9  1006.4    0.0   0.0   0.0   0.0   ----- 
Thu 18:00  NNE 11/ 22  25.6 22.1  1006.6    0.0   0.0   0.0   0.0   ----- 
Thu 18:00  NNE 11/ 22  25.6 22.1  1006.6    0.0   0.0  ----   0.0   ----- 
Thu 18:30    N 11/ 20  24.8 22.5  1007.2    0.0   0.0   0.0   0.0   ----- 
Thu 19:00   NE  9/ 17  24.4 23.0  1007.4    0.2   0.2   0.2   0.2   ----- 
Thu 19:30   NE  6/  9  24.1 23.2  1007.5    1.2   1.0   1.2   1.0   ----- 
Thu 20:00  ENE 11/ 13  24.0 23.7  1007.6    1.4   0.2   1.2   0.0   ----- 
Thu 20:00  ENE 11/ 13  24.0 23.7  1007.6    1.4   0.0  ----   0.0   ----- 
Thu 20:00  ENE 11/ 13  24.0 23.7  1007.6    1.4   0.0  ----   0.0   ----- 

LADY ELLIOT ISLAND

Site: 039059
Alt: 3.6m
92km NNE of BUNDABERG


  Time     Wind        Temp  DP   Baro     Rain since   Rain past  Vis(m), Cloud(base in m), Weather
  local        km/h                         9am  last   hr   10m    
Thu 15:00  NNE 11/ 19  28.8 21.1  1007.2    0.0   0.0   0.0   0.0   ----- 
Thu 15:30  NNE 13/ 20  27.9 21.0  1006.6    0.0   0.0   0.0   0.0   ----- 
Thu 16:00  NNE 15/ 24  28.2 21.2  1005.8    0.0   0.0   0.0   0.0   ----- 
Thu 16:30  NNE 17/ 24  27.9 21.0  1005.7    0.0   0.0   0.0   0.0   ----- 
Thu 17:00  NNE 17/ 22  26.8 21.3  1005.9    0.0   0.0   0.0   0.0   ----- 
Thu 17:30    N 17/ 28  26.3 21.7  1006.2    0.0   0.0   0.0   0.0   ----- 
Thu 18:00    N 17/ 26  26.0 21.9  1006.5    0.0   0.0   0.0   0.0   ----- 
Thu 18:00    N 17/ 26  26.0 21.9  1006.5    0.0   0.0  ----   0.0   ----- 
Thu 18:30    N 15/ 26  25.9 22.2  1006.6    0.0   0.0   0.0   0.0   ----- 
Thu 19:00    N 13/ 20  25.9 22.4  1007.2    0.0   0.0   0.0   0.0   ----- 
Thu 19:30  NNE 11/ 19  25.9 22.4  1007.4    0.0   0.0   0.0   0.0   ----- 
Thu 20:00    N 11/ 17  26.0 22.7  1008.1    0.0   0.0   0.0   0.0   ----- 
Thu 20:00    N 11/ 17  26.0 22.7  1008.1    0.0   0.0  ----   0.0   ----- 
Thu 20:00    N 11/ 17  26.0 22.7  1008.1    0.0   0.0  ----   0.0   ----- 

ROCKHAMPTON AERO

Site: 039083
Alt: 10.4m
3km WSW of ROCKHAMPTON


  Time     Wind        Temp  DP   Baro     Rain since   Rain past  Vis(m), Cloud(base in m), Weather
  local        km/h                         9am  last   hr   10m    
Thu 15:00   NE 17/ 22  27.7 21.5  1005.5    0.2   0.0   0.0   0.0  *10000|SC 840cu OC4800as 
Thu 15:30   NE 17/ 24  27.4 21.2  1004.4    0.2   0.0   0.0   0.0  *10000|FE 750cu OC4800as 
Thu 16:00   NE 17/ 22  27.3 21.6  1004.4    0.2   0.0   0.0   0.0  *10000|FE 750cu OC4500as 
Thu 16:30  NNE 24/ 33  27.1 21.8  1004.9    0.2   0.0   0.0   0.0   10000|SC 690 SC1470 
Thu 17:00  NNE 20/ 30  26.7 21.9  1005.2    0.2   0.0   0.0   0.0   10000|SC 600 BR 810 OC 990 
Thu 17:30   NE 17/ 26  26.6 22.0  1005.4    0.2   0.0   0.0   0.0   10000|SC 600 BR1440 
Thu 18:00  NNE 19/ 24  26.4 22.3  1005.4    0.2   0.0   0.0   0.0   10000 
Thu 18:00  NNE 19/ 24  26.4 22.3  1005.4    0.2   0.0  ----   0.0   10000 
Thu 18:30    N 15/ 22  26.4 22.0  1005.8    0.2   0.0   0.0   0.0   10000|BR1380 OC3600 
Thu 19:00    N  9/ 13  26.2 22.1  1006.2    0.2   0.0   0.0   0.0   10000|BR1290 OC1440 
Thu 19:30   NE 11/ 15  26.1 22.4  1006.3    0.2   0.0   0.0   0.0   10000|SC1230 BR1470 OC1710 
Thu 20:00  NNE 13/ 19  25.9 22.2  1006.5    0.2   0.0   0.0   0.0   10000|BR1800 OC3750 
Thu 20:00  NNE 13/ 19  25.9 22.2  1006.5    0.2   0.0  ----   0.0   10000|BR1800 OC3750 
Thu 20:00  NNE 13/ 19  25.9 22.2  1006.5    0.2   0.0  ----   0.0   10000|BR1800 OC3750 

THANGOOL AIRPORT

Site: 039089
Alt: 193.1m
13km SSE of BILOELA


  Time     Wind        Temp  DP   Baro     Rain since   Rain past  Vis(m), Cloud(base in m), Weather
  local        km/h                         9am  last   hr   10m    
Thu 15:00    N 19/ 24  28.8 18.9  1005.5    0.0   0.0   0.0   0.0   10000|BR1170 BR1380 
Thu 15:30  NNE 19/ 28  28.6 19.2  1005.0    0.0   0.0   0.0   0.0   10000|BR1170 BR1410 OC1650 
Thu 16:00    N 20/ 26  28.9 19.5  1004.5    0.0   0.0   0.0   0.0   10000|BR1110 BR1290 OC1890 
Thu 16:30    N 17/ 26  28.2 19.4  1004.8    0.0   0.0   0.0   0.0   10000|SC1290 SC1710 SC1980 
Thu 17:00  NNE 17/ 24  28.1 19.6  1005.2    0.0   0.0   0.0   0.0   10000|BR1080 
Thu 17:30    N 22/ 30  27.7 19.5  1005.8    0.0   0.0   0.0   0.0   10000|BR1080 OC1350 
Thu 18:00  NNE 19/ 26  27.0 19.6  1006.3    0.0   0.0   0.0   0.0   10000|SC 960 SC1140 OC2010 
Thu 18:00  NNE 19/ 26  27.0 19.6  1006.3    0.0   0.0  ----   0.0   10000|SC 960 SC1140 OC2010 
Thu 18:30    N 19/ 26  26.4 19.8  1006.9    0.0   0.0   0.0   0.0   10000|SC1080 SC1890 BR2220 
Thu 19:00  NNE 11/ 17  25.8 19.7  1007.4    0.0   0.0   0.0   0.0   10000 
Thu 19:30  NNE  9/ 13  25.4 19.8  1007.5    0.0   0.0   0.0   0.0   10000|SC2280 
Thu 20:00   NE 13/ 19  25.0 19.6  1007.3    0.0   0.0   0.0   0.0   10000|SC 990 BR2280 BR3000 
Thu 20:00   NE 13/ 19  25.0 19.6  1007.3    0.0   0.0  ----   0.0   10000|SC 990 BR2280 BR3000 
Thu 20:00   NE 13/ 19  25.0 19.6  1007.3    0.0   0.0  ----   0.0   10000|SC 990 BR2280 BR3000